Time;durP1;ratioP1;P1;durP2;ratioP2;P2;SDS_P1;SDS_P2;PMS_P1;PMS_P2;Temp;Humidity;BMP_temperature;BMP_pressure;BME280_temperature;BME280_humidity;BME280_pressure;Samples;Min_cycle;Max_cycle;Signal;HPM_P1;HPM_P2
2021/04/19 04:50:52;;;;;;;8.93;6.38;;;;;;;;;;5068616;28;20386;-81
2021/04/19 04:53:20;;;;;;;13.27;7.68;;;;;;;;;;5069520;28;20032;-81
2021/04/19 04:55:49;;;;;;;13.15;7.25;;;;;;;;;;5076862;28;20369;-81
2021/04/19 04:58:15;;;;;;;10.93;6.65;;;;;;;;;;5069093;28;20020;-80
2021/04/19 05:00:42;;;;;;;11.02;6.70;;;;;;;;;;5086627;22;20001;-77
2021/04/19 05:03:09;;;;;;;11.15;6.10;;;;;;;;;;5046000;28;20067;-78
2021/04/19 05:05:34;;;;;;;12.15;7.05;;;;;;;;;;5047067;28;20032;-77
2021/04/19 05:08:00;;;;;;;11.13;6.25;;;;;;;;;;5047712;28;20029;-77
2021/04/19 05:10:26;;;;;;;12.90;6.28;;;;;;;;;;5045386;28;20037;-77
2021/04/19 05:12:52;;;;;;;10.73;6.82;;;;;;;;;;5061923;28;20022;-77
2021/04/19 05:15:18;;;;;;;9.90;6.57;;;;;;;;;;5059775;28;20009;-77
2021/04/19 05:17:44;;;;;;;11.93;6.88;;;;;;;;;;5065866;28;20027;-77
2021/04/19 05:20:10;;;;;;;9.88;6.65;;;;;;;;;;5059400;28;20021;-78
2021/04/19 05:22:36;;;;;;;12.25;7.20;;;;;;;;;;5059471;28;20104;-77
2021/04/19 05:25:03;;;;;;;13.25;7.05;;;;;;;;;;5063941;28;20032;-77
2021/04/19 05:27:29;;;;;;;12.88;7.32;;;;;;;;;;5061338;28;20059;-77
2021/04/19 05:29:55;;;;;;;11.63;6.57;;;;;;;;;;5061649;28;20032;-77
2021/04/19 05:32:22;;;;;;;10.98;6.35;;;;;;;;;;5064108;28;20029;-78
2021/04/19 05:34:48;;;;;;;11.60;7.25;;;;;;;;;;5061304;28;20017;-77
2021/04/19 05:37:14;;;;;;;11.25;7.22;;;;;;;;;;5060168;28;20021;-77
2021/04/19 05:39:39;;;;;;;13.90;8.60;;;;;;;;;;5055378;28;20033;-78
2021/04/19 05:42:06;;;;;;;12.60;7.78;;;;;;;;;;5060950;28;20029;-77
2021/04/19 05:44:31;;;;;;;12.60;8.07;;;;;;;;;;5066590;28;20432;-77
2021/04/19 05:46:57;;;;;;;13.32;7.70;;;;;;;;;;5067020;28;20020;-77
2021/04/19 05:49:23;;;;;;;11.65;7.28;;;;;;;;;;5066519;28;20099;-78
2021/04/19 05:51:50;;;;;;;13.68;8.48;;;;;;;;;;5066530;28;20031;-77
2021/04/19 05:54:16;;;;;;;17.60;8.57;;;;;;;;;;5065234;28;20021;-78
2021/04/19 05:57:01;;;;;;;11.75;7.80;;;;;;;;;;5066846;28;20461;-77
2021/04/19 05:59:30;;;;;;;12.48;8.32;;;;;;;;;;5057642;28;20045;-78
2021/04/19 06:01:57;;;;;;;12.73;8.55;;;;;;;;;;5045401;28;20032;-78
2021/04/19 06:04:38;;;;;;;11.57;7.78;;;;;;;;;;5038825;28;20056;-78
2021/04/19 06:07:13;;;;;;;13.07;8.00;;;;;;;;;;5045940;28;20025;-77
2021/04/19 06:09:42;;;;;;;10.52;7.68;;;;;;;;;;5040109;28;20021;-78
2021/04/19 06:12:09;;;;;;;14.32;8.88;;;;;;;;;;5042121;28;20083;-76
2021/04/19 06:14:36;;;;;;;13.73;7.72;;;;;;;;;;5042578;28;20158;-77
2021/04/19 06:17:02;;;;;;;10.07;7.35;;;;;;;;;;5053088;28;20052;-77
2021/04/19 06:19:29;;;;;;;12.80;8.85;;;;;;;;;;5053064;28;20032;-76
2021/04/19 06:21:54;;;;;;;16.70;9.80;;;;;;;;;;5050662;28;20021;-76
2021/04/19 06:24:21;;;;;;;15.65;9.73;;;;;;;;;;5045507;28;20040;-77
2021/04/19 06:26:47;;;;;;;15.90;10.80;;;;;;;;;;5047066;28;20021;-77
2021/04/19 06:29:13;;;;;;;16.80;10.70;;;;;;;;;;5041254;28;20377;-76
2021/04/19 06:31:44;;;;;;;16.20;10.32;;;;;;;;;;5041435;28;20013;-77
2021/04/19 06:34:10;;;;;;;17.45;10.30;;;;;;;;;;5041587;28;20056;-76
2021/04/19 06:36:37;;;;;;;16.58;10.07;;;;;;;;;;5042151;28;20021;-77
2021/04/19 06:39:03;;;;;;;19.70;10.15;;;;;;;;;;5044514;28;20099;-77
2021/04/19 06:41:29;;;;;;;16.80;10.77;;;;;;;;;;5051374;28;20047;-77
2021/04/19 06:43:56;;;;;;;15.73;10.10;;;;;;;;;;5052430;28;20413;-77
2021/04/19 06:46:22;;;;;;;15.38;11.50;;;;;;;;;;5051374;28;20400;-77
2021/04/19 06:48:49;;;;;;;23.83;11.82;;;;;;;;;;5052494;28;20087;-77
2021/04/19 06:51:15;;;;;;;21.05;12.10;;;;;;;;;;5044436;28;20017;-77
2021/04/19 06:53:41;;;;;;;19.27;13.25;;;;;;;;;;5052303;28;20021;-77
2021/04/19 06:56:07;;;;;;;21.20;16.30;;;;;;;;;;5049297;28;20033;-77
2021/04/19 06:58:34;;;;;;;21.38;14.43;;;;;;;;;;5046305;28;20022;-77
2021/04/19 07:01:00;;;;;;;26.55;15.23;;;;;;;;;;5041963;28;20021;-77
2021/04/19 07:03:28;;;;;;;21.67;14.38;;;;;;;;;;5039130;28;20580;-77
2021/04/19 07:05:54;;;;;;;28.25;15.00;;;;;;;;;;5041065;28;20048;-78
2021/04/19 07:08:37;;;;;;;22.75;15.27;;;;;;;;;;5048327;28;20053;-77
2021/04/19 07:11:04;;;;;;;25.60;15.80;;;;;;;;;;5050041;28;20063;-77
2021/04/19 07:15:48;;;;;;;25.08;16.52;;;;;;;;;;5095500;28;20423;-77
2021/04/19 07:18:14;;;;;;;24.08;15.57;;;;;;;;;;5096700;28;20031;-78
2021/04/19 07:20:40;;;;;;;29.10;16.77;;;;;;;;;;5096964;28;20435;-77
2021/04/19 07:23:05;;;;;;;22.05;14.32;;;;;;;;;;5101603;28;20020;-76
2021/04/19 07:25:31;;;;;;;27.33;15.68;;;;;;;;;;5088216;28;20060;-77
2021/04/19 07:27:59;;;;;;;22.23;14.15;;;;;;;;;;5074750;28;20032;-76
2021/04/19 07:30:25;;;;;;;25.45;15.85;;;;;;;;;;5091109;28;20048;-76
2021/04/19 07:32:50;;;;;;;20.35;14.32;;;;;;;;;;5092499;28;20365;-77
2021/04/19 07:35:24;;;;;;;25.10;16.27;;;;;;;;;;5095779;28;20020;-77
2021/04/19 07:37:57;;;;;;;27.42;16.38;;;;;;;;;;5093589;28;20032;-77
2021/04/19 07:40:33;;;;;;;27.08;17.50;;;;;;;;;;5089556;28;20111;-77
2021/04/19 07:43:13;;;;;;;31.13;17.35;;;;;;;;;;5087417;28;20104;-77
2021/04/19 07:45:42;;;;;;;30.73;18.40;;;;;;;;;;5094658;28;20024;-77
2021/04/19 07:48:28;;;;;;;27.80;18.30;;;;;;;;;;5084866;28;20047;-77
2021/04/19 07:50:54;;;;;;;27.98;18.67;;;;;;;;;;5095294;28;20090;-76
2021/04/19 07:53:20;;;;;;;29.50;19.25;;;;;;;;;;5098630;28;20526;-77
2021/04/19 07:55:49;;;;;;;31.10;19.33;;;;;;;;;;5093814;28;20035;-76
2021/04/19 07:58:21;;;;;;;31.35;19.95;;;;;;;;;;5091734;28;20726;-77
2021/04/19 08:00:47;;;;;;;32.35;21.50;;;;;;;;;;5095020;28;20463;-77
2021/04/19 08:03:14;;;;;;;26.60;18.05;;;;;;;;;;5098252;28;20055;-78
2021/04/19 08:07:58;;;;;;;27.67;18.83;;;;;;;;;;5119640;27;20383;-77
2021/04/19 08:10:24;;;;;;;30.73;21.63;;;;;;;;;;5108514;28;20028;-76
2021/04/19 08:12:52;;;;;;;28.30;19.38;;;;;;;;;;5104904;28;20384;-77
2021/04/19 08:15:20;;;;;;;32.60;18.90;;;;;;;;;;5098812;28;20055;-77
2021/04/19 08:17:46;;;;;;;32.05;20.63;;;;;;;;;;5104248;28;20020;-77
2021/04/19 08:20:13;;;;;;;30.92;20.08;;;;;;;;;;5099143;28;20356;-76
2021/04/19 08:22:40;;;;;;;35.30;21.52;;;;;;;;;;5092856;28;20074;-77
2021/04/19 08:25:12;;;;;;;31.75;20.90;;;;;;;;;;5092965;28;20069;-77
2021/04/19 08:27:38;;;;;;;32.17;19.52;;;;;;;;;;5094370;28;20067;-76
2021/04/19 08:30:05;;;;;;;30.45;20.63;;;;;;;;;;5089976;28;20055;-77
2021/04/19 08:32:32;;;;;;;30.15;20.13;;;;;;;;;;5085283;28;20044;-78
2021/04/19 08:34:58;;;;;;;31.60;20.35;;;;;;;;;;5088812;28;20024;-77
2021/04/19 08:39:42;;;;;;;35.33;22.08;;;;;;;;;;5108589;27;20359;-76
2021/04/19 08:42:08;;;;;;;37.63;21.77;;;;;;;;;;5093278;28;20127;-77
2021/04/19 08:44:35;;;;;;;27.23;18.83;;;;;;;;;;5081609;28;20055;-77
2021/04/19 08:47:01;;;;;;;26.85;18.77;;;;;;;;;;5083628;28;20026;-77
2021/04/19 08:49:27;;;;;;;28.55;18.73;;;;;;;;;;5081078;28;20052;-78
2021/04/19 08:51:53;;;;;;;34.25;21.35;;;;;;;;;;5080746;28;20073;-77
2021/04/19 08:54:19;;;;;;;29.38;19.52;;;;;;;;;;5080982;28;20483;-76
2021/04/19 08:56:45;;;;;;;27.10;18.88;;;;;;;;;;5089116;28;20099;-77
2021/04/19 08:59:11;;;;;;;34.58;20.38;;;;;;;;;;5087835;28;20024;-77
2021/04/19 09:01:37;;;;;;;30.58;20.08;;;;;;;;;;5087800;28;20063;-77
2021/04/19 09:04:03;;;;;;;31.67;20.85;;;;;;;;;;5087509;28;20016;-77
2021/04/19 09:06:39;;;;;;;32.80;23.40;;;;;;;;;;5087724;28;20016;-77
2021/04/19 09:09:05;;;;;;;28.48;18.50;;;;;;;;;;5079295;28;20030;-77
2021/04/19 09:11:30;;;;;;;38.28;21.65;;;;;;;;;;5087767;28;20024;-77
2021/04/19 09:14:03;;;;;;;29.33;20.70;;;;;;;;;;5087336;28;20020;-77
2021/04/19 09:16:33;;;;;;;34.40;21.52;;;;;;;;;;5092844;28;20028;-77
2021/04/19 09:19:00;;;;;;;32.50;21.35;;;;;;;;;;5087760;28;20052;-78
2021/04/19 09:23:53;;;;;;;31.17;19.85;;;;;;;;;;5093083;28;20411;-77
2021/04/19 09:26:39;;;;;;;27.65;18.80;;;;;;;;;;5073431;28;20103;-77
2021/04/19 09:29:05;;;;;;;32.00;20.27;;;;;;;;;;5072277;28;20048;-78
2021/04/19 09:31:49;;;;;;;34.00;21.65;;;;;;;;;;5061655;28;20470;-78
2021/04/19 09:34:15;;;;;;;32.92;20.55;;;;;;;;;;5063140;28;20056;-77
2021/04/19 09:36:50;;;;;;;28.77;20.55;;;;;;;;;;5064845;28;20104;-78
2021/04/19 09:39:35;;;;;;;32.22;21.02;;;;;;;;;;5063765;28;20017;-77
2021/04/19 09:42:01;;;;;;;31.90;20.45;;;;;;;;;;5063040;28;20059;-77
2021/04/19 09:44:27;;;;;;;33.35;21.17;;;;;;;;;;5067029;28;20016;-77
2021/04/19 09:46:53;;;;;;;28.40;20.13;;;;;;;;;;5068460;28;20362;-77
2021/04/19 09:49:21;;;;;;;32.13;21.60;;;;;;;;;;5067368;28;20078;-77
2021/04/19 09:54:09;;;;;;;29.30;20.58;;;;;;;;;;5109643;27;20355;-77
2021/04/19 09:56:49;;;;;;;34.47;24.83;;;;;;;;;;5100554;28;20423;-78
2021/04/19 09:59:16;;;;;;;36.05;23.70;;;;;;;;;;5109702;28;20107;-77
2021/04/19 10:01:45;;;;;;;38.50;25.65;;;;;;;;;;5094944;28;20468;-76
2021/04/19 10:04:10;;;;;;;36.10;24.13;;;;;;;;;;5099056;28;20016;-77
2021/04/19 10:06:38;;;;;;;37.15;26.13;;;;;;;;;;5098681;28;20468;-77
2021/04/19 10:09:07;;;;;;;36.95;25.15;;;;;;;;;;5101650;28;20012;-78
2021/04/19 10:11:35;;;;;;;37.67;23.95;;;;;;;;;;5095840;28;20056;-78
2021/04/19 10:14:11;;;;;;;33.03;21.98;;;;;;;;;;5099524;28;20012;-77
2021/04/19 10:16:40;;;;;;;33.70;21.17;;;;;;;;;;5094157;28;20031;-77
2021/04/19 10:19:06;;;;;;;34.20;24.38;;;;;;;;;;5100185;28;20025;-77
2021/04/19 10:21:32;;;;;;;31.27;20.92;;;;;;;;;;5095072;28;20087;-77
2021/04/19 10:24:00;;;;;;;31.48;21.85;;;;;;;;;;5096363;28;20024;-78
2021/04/19 10:26:30;;;;;;;31.48;19.58;;;;;;;;;;5092010;28;20024;-78
2021/04/19 10:28:56;;;;;;;36.05;24.25;;;;;;;;;;5099738;28;20028;-76
2021/04/19 10:31:22;;;;;;;33.75;21.38;;;;;;;;;;5089738;28;20391;-77
2021/04/19 10:33:48;;;;;;;34.70;21.77;;;;;;;;;;5097230;28;20026;-77
2021/04/19 10:36:15;;;;;;;32.63;22.23;;;;;;;;;;5097294;28;20024;-77
2021/04/19 10:38:42;;;;;;;36.22;23.00;;;;;;;;;;5099166;28;20020;-77
2021/04/19 10:41:08;;;;;;;37.70;24.95;;;;;;;;;;5098924;28;20032;-76
2021/04/19 10:43:34;;;;;;;40.53;26.80;;;;;;;;;;5096676;28;20246;-77
2021/04/19 10:46:00;;;;;;;38.00;25.05;;;;;;;;;;5094089;28;20055;-77
2021/04/19 10:48:32;;;;;;;39.42;24.80;;;;;;;;;;5099246;28;20026;-77
2021/04/19 10:51:13;;;;;;;36.47;23.90;;;;;;;;;;5096240;28;20446;-77
2021/04/19 10:53:40;;;;;;;37.70;24.27;;;;;;;;;;5093073;28;20028;-78
2021/04/19 10:58:24;;;;;;;31.95;23.02;;;;;;;;;;5082348;28;20394;-77
2021/04/19 11:00:50;;;;;;;34.33;23.00;;;;;;;;;;5067493;28;20560;-78
2021/04/19 11:03:16;;;;;;;35.42;22.92;;;;;;;;;;5065580;28;20028;-78
2021/04/19 11:05:41;;;;;;;36.55;24.02;;;;;;;;;;5067635;28;20032;-78
2021/04/19 11:08:07;;;;;;;32.85;22.13;;;;;;;;;;5068714;28;20540;-78
2021/04/19 11:10:33;;;;;;;36.33;21.88;;;;;;;;;;5066988;28;20409;-78
2021/04/19 11:13:03;;;;;;;29.98;21.10;;;;;;;;;;5066983;28;20021;-78
2021/04/19 11:15:29;;;;;;;31.15;22.40;;;;;;;;;;5076068;22;20055;-81
2021/04/19 11:17:55;;;;;;;39.75;23.30;;;;;;;;;;5031964;28;20025;-83
2021/04/19 11:20:25;;;;;;;33.50;22.50;;;;;;;;;;5029159;28;20097;-83
2021/04/19 11:22:51;;;;;;;37.47;24.70;;;;;;;;;;5031808;28;20021;-83
2021/04/19 11:25:18;;;;;;;32.97;22.88;;;;;;;;;;5033200;28;20423;-83
2021/04/19 11:27:44;;;;;;;32.20;21.52;;;;;;;;;;5060553;28;20056;-82
2021/04/19 11:30:23;;;;;;;32.90;21.58;;;;;;;;;;5058379;28;20021;-82
2021/04/19 11:33:00;;;;;;;33.60;22.33;;;;;;;;;;5042469;28;20036;-82
2021/04/19 11:35:26;;;;;;;35.10;23.25;;;;;;;;;;5055631;28;20072;-82
2021/04/19 11:37:59;;;;;;;42.80;27.38;;;;;;;;;;5065653;28;20009;-82
2021/04/19 11:40:26;;;;;;;33.22;22.52;;;;;;;;;;5060761;28;20105;-82
2021/04/19 11:42:51;;;;;;;39.00;26.13;;;;;;;;;;5066266;28;20393;-82
2021/04/19 11:45:22;;;;;;;38.75;25.20;;;;;;;;;;5063847;28;20049;-82
2021/04/19 11:47:48;;;;;;;40.22;24.55;;;;;;;;;;5049058;28;20025;-83
2021/04/19 11:50:14;;;;;;;33.55;23.05;;;;;;;;;;5070301;28;20057;-83
2021/04/19 11:52:46;;;;;;;31.98;21.85;;;;;;;;;;5069531;28;20017;-82
2021/04/19 11:55:12;;;;;;;31.55;21.30;;;;;;;;;;5047189;28;20048;-82
2021/04/19 11:57:38;;;;;;;46.35;27.92;;;;;;;;;;5068911;28;20021;-82
2021/04/19 12:00:04;;;;;;;68.55;38.85;;;;;;;;;;5056726;28;20028;-81
2021/04/19 12:02:29;;;;;;;48.55;29.90;;;;;;;;;;5055303;28;20040;-81
2021/04/19 12:04:55;;;;;;;47.33;28.70;;;;;;;;;;5037265;28;20051;-81
2021/04/19 12:07:21;;;;;;;46.25;27.48;;;;;;;;;;5037460;28;20088;-81
2021/04/19 12:09:46;;;;;;;47.78;30.10;;;;;;;;;;5028201;28;20112;-81
2021/04/19 12:12:12;;;;;;;37.83;25.80;;;;;;;;;;5046244;28;20053;-81
2021/04/19 12:14:38;;;;;;;37.13;23.63;;;;;;;;;;5033007;28;20089;-81
2021/04/19 12:17:03;;;;;;;36.75;23.38;;;;;;;;;;5043441;28;20017;-81
2021/04/19 12:19:29;;;;;;;36.00;24.42;;;;;;;;;;5045650;28;20025;-81
2021/04/19 12:21:55;;;;;;;37.30;25.30;;;;;;;;;;5045672;28;20030;-81
2021/04/19 12:24:20;;;;;;;38.30;24.88;;;;;;;;;;5030186;28;20108;-81
2021/04/19 12:26:46;;;;;;;37.15;22.92;;;;;;;;;;5042365;28;20094;-81
2021/04/19 12:29:12;;;;;;;31.90;19.90;;;;;;;;;;5031943;28;20033;-81
2021/04/19 12:31:38;;;;;;;34.25;21.20;;;;;;;;;;5035043;28;20036;-81
2021/04/19 12:34:04;;;;;;;30.73;21.63;;;;;;;;;;5027398;28;20104;-81
2021/04/19 12:36:33;;;;;;;29.85;21.60;;;;;;;;;;5028303;28;20041;-81
2021/04/19 12:38:58;;;;;;;30.02;20.00;;;;;;;;;;5027942;28;20021;-81
2021/04/19 12:41:24;;;;;;;27.83;18.42;;;;;;;;;;5024557;28;20025;-80
2021/04/19 12:43:50;;;;;;;29.88;20.75;;;;;;;;;;5026489;28;20050;-81
2021/04/19 12:46:16;;;;;;;29.63;19.98;;;;;;;;;;5030633;28;20025;-81
2021/04/19 12:48:41;;;;;;;28.33;19.33;;;;;;;;;;5025415;28;20022;-81
2021/04/19 12:51:07;;;;;;;28.58;20.73;;;;;;;;;;5027270;28;20025;-81
2021/04/19 12:53:33;;;;;;;28.58;19.05;;;;;;;;;;5026402;28;20033;-81
2021/04/19 12:55:58;;;;;;;27.42;18.65;;;;;;;;;;5025553;28;20139;-81
2021/04/19 12:58:24;;;;;;;36.05;20.17;;;;;;;;;;5027262;28;20040;-81
2021/04/19 13:00:50;;;;;;;28.15;19.10;;;;;;;;;;5023712;28;20017;-81
2021/04/19 13:03:15;;;;;;;30.60;20.25;;;;;;;;;;5012920;28;20088;-81
2021/04/19 13:05:41;;;;;;;27.08;19.10;;;;;;;;;;5021182;28;20018;-81
2021/04/19 13:08:07;;;;;;;26.63;18.67;;;;;;;;;;5023591;28;20085;-81
2021/04/19 13:10:33;;;;;;;32.13;20.40;;;;;;;;;;5029887;28;20055;-81
2021/04/19 13:13:00;;;;;;;28.25;19.45;;;;;;;;;;5028421;28;20033;-81
2021/04/19 13:15:26;;;;;;;25.83;17.75;;;;;;;;;;5024808;28;20108;-81
2021/04/19 13:17:52;;;;;;;28.33;19.95;;;;;;;;;;5026326;28;20108;-81
2021/04/19 13:20:19;;;;;;;28.77;19.17;;;;;;;;;;5041703;28;20033;-81
2021/04/19 13:22:46;;;;;;;24.02;17.60;;;;;;;;;;5025298;28;20096;-81
2021/04/19 13:25:12;;;;;;;28.70;18.10;;;;;;;;;;5023971;28;20013;-81
2021/04/19 13:27:37;;;;;;;25.35;17.65;;;;;;;;;;5040332;28;20064;-81
2021/04/19 13:30:03;;;;;;;26.55;18.38;;;;;;;;;;5043834;28;20155;-81
2021/04/19 13:32:29;;;;;;;24.90;17.98;;;;;;;;;;5037242;28;20131;-81
2021/04/19 13:34:55;;;;;;;26.17;17.92;;;;;;;;;;5038174;28;20077;-81
2021/04/19 13:37:21;;;;;;;25.02;18.42;;;;;;;;;;5025156;28;20026;-81
2021/04/19 13:39:46;;;;;;;31.88;19.95;;;;;;;;;;5024661;28;20002;-81
2021/04/19 13:42:12;;;;;;;29.98;19.15;;;;;;;;;;5033121;28;20048;-81
2021/04/19 13:44:38;;;;;;;30.08;19.50;;;;;;;;;;5035614;28;20043;-81
2021/04/19 13:47:04;;;;;;;25.75;18.13;;;;;;;;;;5031931;28;20044;-81
2021/04/19 13:49:30;;;;;;;30.15;20.17;;;;;;;;;;5041336;28;20045;-81
2021/04/19 13:51:58;;;;;;;27.48;18.70;;;;;;;;;;5039139;28;20039;-81
2021/04/19 13:54:25;;;;;;;26.60;19.23;;;;;;;;;;5038333;28;20025;-81
2021/04/19 13:56:51;;;;;;;31.25;18.63;;;;;;;;;;5024181;28;20057;-82
2021/04/19 13:59:17;;;;;;;28.45;18.65;;;;;;;;;;5032414;28;20029;-85
2021/04/19 14:01:42;;;;;;;27.88;18.55;;;;;;;;;;5043340;28;20382;-85
2021/04/19 14:04:08;;;;;;;23.02;17.05;;;;;;;;;;5046209;28;20024;-86
2021/04/19 14:06:34;;;;;;;26.15;17.65;;;;;;;;;;5034149;28;20071;-86
2021/04/19 14:08:59;;;;;;;30.10;17.92;;;;;;;;;;5032991;28;20041;-86
2021/04/19 14:11:26;;;;;;;28.95;19.48;;;;;;;;;;5027189;28;20021;-86
2021/04/19 14:16:10;;;;;;;24.30;17.33;;;;;;;;;;5086736;27;20397;-83
2021/04/19 14:18:39;;;;;;;24.83;17.42;;;;;;;;;;5073482;28;20039;-82
2021/04/19 14:21:05;;;;;;;24.90;16.38;;;;;;;;;;5072337;28;20095;-82
2021/04/19 14:23:31;;;;;;;26.30;17.15;;;;;;;;;;5086564;28;20036;-84
2021/04/19 14:25:57;;;;;;;26.45;17.45;;;;;;;;;;5071893;28;20096;-84
2021/04/19 14:28:23;;;;;;;28.17;16.33;;;;;;;;;;5074421;28;20538;-84
2021/04/19 14:30:49;;;;;;;22.50;16.60;;;;;;;;;;5084876;28;20028;-85
2021/04/19 14:33:15;;;;;;;23.48;15.70;;;;;;;;;;5068977;28;20059;-84
2021/04/19 14:35:41;;;;;;;22.60;16.23;;;;;;;;;;5071628;28;20115;-84
2021/04/19 14:38:07;;;;;;;19.50;14.80;;;;;;;;;;5084182;28;20070;-84
2021/04/19 14:40:33;;;;;;;18.85;14.00;;;;;;;;;;5069479;28;20016;-84
2021/04/19 14:42:58;;;;;;;21.88;14.20;;;;;;;;;;5069803;28;20038;-84
2021/04/19 14:45:24;;;;;;;21.00;14.18;;;;;;;;;;5064139;28;20116;-84
2021/04/19 14:47:50;;;;;;;22.05;14.77;;;;;;;;;;5063957;28;20031;-84
2021/04/19 14:50:16;;;;;;;18.15;13.30;;;;;;;;;;5083467;28;20093;-83
2021/04/19 14:52:41;;;;;;;19.52;12.55;;;;;;;;;;5073831;28;20032;-84
2021/04/19 14:55:08;;;;;;;18.88;13.25;;;;;;;;;;5076205;28;20030;-84
2021/04/19 14:57:34;;;;;;;23.45;14.80;;;;;;;;;;5068118;28;20115;-84
2021/04/19 15:00:01;;;;;;;22.42;14.18;;;;;;;;;;5072215;28;20028;-84
2021/04/19 15:02:26;;;;;;;23.52;14.48;;;;;;;;;;5067260;28;20059;-84
2021/04/19 15:04:54;;;;;;;21.52;13.32;;;;;;;;;;5070744;28;20052;-83
2021/04/19 15:07:20;;;;;;;17.85;12.35;;;;;;;;;;5069895;28;20032;-83
2021/04/19 15:09:46;;;;;;;17.45;12.85;;;;;;;;;;5072224;28;20043;-83
2021/04/19 15:12:11;;;;;;;20.33;12.00;;;;;;;;;;5090405;28;20042;-83
2021/04/19 15:14:37;;;;;;;17.45;11.65;;;;;;;;;;5067511;28;20021;-83
2021/04/19 15:17:03;;;;;;;15.73;11.10;;;;;;;;;;5069241;28;20119;-83
2021/04/19 15:19:29;;;;;;;15.07;10.10;;;;;;;;;;5066131;28;20051;-83
2021/04/19 15:21:58;;;;;;;16.65;10.13;;;;;;;;;;5069185;28;20093;-82
2021/04/19 15:24:24;;;;;;;14.82;10.30;;;;;;;;;;5068148;28;20035;-84
2021/04/19 15:26:53;;;;;;;14.45;10.48;;;;;;;;;;5061561;28;20021;-84
2021/04/19 15:29:19;;;;;;;14.52;9.75;;;;;;;;;;5064626;28;20046;-84
2021/04/19 15:31:44;;;;;;;13.88;9.23;;;;;;;;;;5072484;28;20495;-84
2021/04/19 15:34:10;;;;;;;15.65;10.13;;;;;;;;;;5058136;28;19912;-85
2021/04/19 15:36:36;;;;;;;14.35;9.88;;;;;;;;;;5057326;28;20035;-84
2021/04/19 15:39:03;;;;;;;12.20;8.52;;;;;;;;;;5053486;28;20406;-84
2021/04/19 15:41:29;;;;;;;13.38;8.65;;;;;;;;;;5057650;28;20042;-83
2021/04/19 15:43:55;;;;;;;13.90;8.00;;;;;;;;;;5071237;28;20048;-83
2021/04/19 15:48:40;;;;;;;11.32;7.90;;;;;;;;;;5097852;27;21004;-81
2021/04/19 15:51:06;;;;;;;11.57;7.70;;;;;;;;;;5065872;28;20070;-83
2021/04/19 15:53:32;;;;;;;11.50;7.10;;;;;;;;;;5069156;28;20552;-84
2021/04/19 15:55:57;;;;;;;10.80;7.68;;;;;;;;;;5058212;28;20028;-83
2021/04/19 15:58:23;;;;;;;12.77;8.32;;;;;;;;;;5053599;28;20024;-82
2021/04/19 16:00:51;;;;;;;10.18;7.32;;;;;;;;;;5055972;28;20025;-83
2021/04/19 16:03:17;;;;;;;11.10;7.47;;;;;;;;;;5056928;28;20031;-83
2021/04/19 16:05:42;;;;;;;10.45;7.20;;;;;;;;;;5065817;28;20841;-83
2021/04/19 16:08:08;;;;;;;11.68;7.15;;;;;;;;;;5062047;28;20135;-83
2021/04/19 16:10:34;;;;;;;10.07;6.35;;;;;;;;;;5056588;28;20032;-83
2021/04/19 16:13:00;;;;;;;9.38;6.28;;;;;;;;;;5068742;28;20475;-83
2021/04/19 16:15:25;;;;;;;10.25;7.05;;;;;;;;;;5069526;28;20020;-83
2021/04/19 16:17:51;;;;;;;11.75;6.60;;;;;;;;;;5060113;28;20039;-83
2021/04/19 16:20:18;;;;;;;10.05;6.22;;;;;;;;;;5055291;28;20064;-84
2021/04/19 16:22:44;;;;;;;11.48;6.47;;;;;;;;;;5052352;28;20025;-83
2021/04/19 16:25:10;;;;;;;10.25;6.25;;;;;;;;;;5051944;28;20029;-84
2021/04/19 16:27:37;;;;;;;11.02;7.63;;;;;;;;;;5055354;28;20025;-83
2021/04/19 16:30:04;;;;;;;10.70;6.97;;;;;;;;;;5052649;28;20029;-83
2021/04/19 16:32:29;;;;;;;13.63;8.15;;;;;;;;;;5051664;28;20047;-83
2021/04/19 16:34:55;;;;;;;12.65;7.47;;;;;;;;;;5055622;28;20024;-83
2021/04/19 16:37:21;;;;;;;9.98;7.07;;;;;;;;;;5068798;28;20103;-83
2021/04/19 16:39:46;;;;;;;9.57;6.95;;;;;;;;;;5068044;28;20021;-83
2021/04/19 16:42:12;;;;;;;11.63;8.00;;;;;;;;;;5070747;28;20033;-83
2021/04/19 16:44:38;;;;;;;10.88;7.63;;;;;;;;;;5053287;28;19912;-84
2021/04/19 16:47:03;;;;;;;10.88;7.80;;;;;;;;;;5057962;28;20086;-83
2021/04/19 16:49:29;;;;;;;11.35;7.60;;;;;;;;;;5070520;28;20029;-84
2021/04/19 16:51:55;;;;;;;14.32;7.22;;;;;;;;;;5066991;28;20052;-83
2021/04/19 16:54:21;;;;;;;10.55;7.82;;;;;;;;;;5085536;28;20429;-82
2021/04/19 16:56:46;;;;;;;9.90;7.32;;;;;;;;;;5081153;28;20021;-84
2021/04/19 16:59:12;;;;;;;10.68;7.55;;;;;;;;;;5052682;28;20024;-83
2021/04/19 17:01:38;;;;;;;15.90;8.25;;;;;;;;;;5049533;28;20097;-83
2021/04/19 17:06:22;;;;;;;9.85;6.55;;;;;;;;;;5079182;28;20342;-84
2021/04/19 17:08:48;;;;;;;9.23;5.93;;;;;;;;;;5070899;28;20093;-84
2021/04/19 17:11:14;;;;;;;9.82;6.57;;;;;;;;;;5061587;28;20024;-84
2021/04/19 17:13:40;;;;;;;11.13;7.20;;;;;;;;;;5053650;28;20029;-82
2021/04/19 17:16:06;;;;;;;10.70;7.32;;;;;;;;;;5062679;23;20060;-78
2021/04/19 17:18:32;;;;;;;10.90;7.80;;;;;;;;;;5036441;28;20401;-78
2021/04/19 17:20:58;;;;;;;7.70;5.63;;;;;;;;;;5039692;28;20028;-78
2021/04/19 17:23:26;;;;;;;7.32;5.20;;;;;;;;;;5045305;28;20044;-78
2021/04/19 17:25:52;;;;;;;8.38;5.63;;;;;;;;;;5043825;28;20020;-78
2021/04/19 17:28:18;;;;;;;9.23;6.32;;;;;;;;;;5058064;28;20037;-77
2021/04/19 17:30:43;;;;;;;6.53;4.65;;;;;;;;;;5062622;28;20020;-78
2021/04/19 17:33:09;;;;;;;7.40;4.70;;;;;;;;;;5064964;28;20419;-79
2021/04/19 17:35:35;;;;;;;7.20;4.68;;;;;;;;;;5062782;28;20026;-77
2021/04/19 17:38:00;;;;;;;7.72;4.90;;;;;;;;;;5060307;28;20017;-78
2021/04/19 17:40:26;;;;;;;7.63;4.57;;;;;;;;;;5063641;28;20028;-77
2021/04/19 17:42:52;;;;;;;6.93;4.88;;;;;;;;;;5051457;28;20432;-78
2021/04/19 17:45:18;;;;;;;7.40;4.60;;;;;;;;;;5062533;28;20040;-78
2021/04/19 17:47:44;;;;;;;8.82;5.75;;;;;;;;;;5061802;28;20016;-77
2021/04/19 17:50:14;;;;;;;9.02;5.93;;;;;;;;;;5060983;28;20021;-78
2021/04/19 17:52:40;;;;;;;8.80;5.40;;;;;;;;;;5060785;28;20060;-77
2021/04/19 17:55:08;;;;;;;12.70;6.53;;;;;;;;;;5064623;28;20039;-78
2021/04/19 17:57:33;;;;;;;6.25;5.00;;;;;;;;;;5066601;28;20020;-78
2021/04/19 17:59:59;;;;;;;7.10;4.88;;;;;;;;;;5062932;28;20075;-78
2021/04/19 18:02:25;;;;;;;8.15;4.40;;;;;;;;;;5061560;28;20032;-79
2021/04/19 18:04:51;;;;;;;7.88;4.50;;;;;;;;;;5063706;28;20542;-78
2021/04/19 18:07:18;;;;;;;6.88;4.22;;;;;;;;;;5061717;28;20031;-78
2021/04/19 18:09:44;;;;;;;6.82;4.35;;;;;;;;;;5052484;28;20025;-77
2021/04/19 18:12:10;;;;;;;5.75;3.80;;;;;;;;;;5062992;28;20047;-78
2021/04/19 18:14:35;;;;;;;6.57;4.45;;;;;;;;;;5058727;28;20112;-78
2021/04/19 18:17:01;;;;;;;6.68;4.90;;;;;;;;;;5052355;28;20034;-78
2021/04/19 18:19:27;;;;;;;5.35;3.85;;;;;;;;;;5048760;28;20028;-78
2021/04/19 18:21:53;;;;;;;6.07;4.35;;;;;;;;;;5047256;28;20496;-77
2021/04/19 18:24:20;;;;;;;7.97;5.18;;;;;;;;;;5049722;28;20028;-78
2021/04/19 18:29:04;;;;;;;7.15;4.05;;;;;;;;;;5058530;28;20903;-78
2021/04/19 18:31:30;;;;;;;7.00;4.45;;;;;;;;;;5052791;28;20037;-78
2021/04/19 18:33:56;;;;;;;6.38;4.00;;;;;;;;;;5051856;28;20035;-78
2021/04/19 18:36:22;;;;;;;6.35;4.38;;;;;;;;;;5055639;28;20036;-78
2021/04/19 18:38:48;;;;;;;9.23;5.50;;;;;;;;;;5059889;28;20504;-76
2021/04/19 18:41:13;;;;;;;11.68;8.02;;;;;;;;;;5056687;28;20388;-78
2021/04/19 18:43:39;;;;;;;11.80;8.52;;;;;;;;;;5047893;28;20028;-77
2021/04/19 18:46:05;;;;;;;12.68;8.25;;;;;;;;;;5054634;28;20351;-78
2021/04/19 18:48:31;;;;;;;14.60;8.82;;;;;;;;;;5054531;28;20036;-77
2021/04/19 18:50:56;;;;;;;11.00;7.30;;;;;;;;;;5054756;28;20036;-78
2021/04/19 18:55:41;;;;;;;10.90;6.93;;;;;;;;;;5123508;27;20357;-77
2021/04/19 18:58:07;;;;;;;11.98;7.30;;;;;;;;;;5115321;27;20031;-78
2021/04/19 19:00:33;;;;;;;10.18;7.80;;;;;;;;;;5114412;28;20417;-78
2021/04/19 19:02:58;;;;;;;17.08;7.82;;;;;;;;;;5113274;28;20033;-76
2021/04/19 19:05:25;;;;;;;11.50;7.97;;;;;;;;;;5115042;28;20031;-77
2021/04/19 19:07:51;;;;;;;11.85;7.18;;;;;;;;;;5111973;27;20038;-78
2021/04/19 19:10:17;;;;;;;11.63;7.10;;;;;;;;;;5112670;28;20471;-78
2021/04/19 19:12:43;;;;;;;9.35;6.38;;;;;;;;;;5113823;28;20035;-78
2021/04/19 19:15:10;;;;;;;10.00;7.03;;;;;;;;;;5109842;27;20059;-79
2021/04/19 19:17:36;;;;;;;10.07;7.53;;;;;;;;;;5116472;27;20475;-78
2021/04/19 19:20:03;;;;;;;9.80;7.07;;;;;;;;;;5109569;28;20023;-78
2021/04/19 19:22:29;;;;;;;13.45;7.57;;;;;;;;;;5109353;27;20429;-78
2021/04/19 19:24:55;;;;;;;9.98;7.47;;;;;;;;;;5114655;28;20069;-78
2021/04/19 19:27:21;;;;;;;11.73;8.50;;;;;;;;;;5120148;27;20023;-78
2021/04/19 19:29:47;;;;;;;11.45;8.00;;;;;;;;;;5119870;28;20042;-76
2021/04/19 19:32:12;;;;;;;9.68;6.85;;;;;;;;;;5121484;28;20400;-76
2021/04/19 19:34:38;;;;;;;11.82;7.38;;;;;;;;;;5111669;28;20379;-76
2021/04/19 19:39:22;;;;;;;8.73;6.70;;;;;;;;;;5081232;27;20398;-76